Flight Track Log - Related Links

Times and Time Zones

All times are in EDT time to prevent confusion due to time zone crossing. See the SWA127 flight status page for this flight to view local times or setup timezone preferences in your user account.

Time Position Orientation Groundspeed Altitude Reporting Facility
EDT Latitude Longitude Course Direction KTS MPH feet Rate Location/Type
Thu 11:38:19 AM 29.6519 -95.2872 18° North 140 161 800  Level Houston Center
Thu 11:38:56 AM 29.6722 -95.2797 18° North 160 184 1,800 2,143 Climbing Houston Center
Thu 11:39:57 AM 29.6267 -95.2397 143° Southeast 268 308 4,300 2,534 Climbing Houston Center
Thu 11:40:52 AM 29.5517 -95.2247 170° South 308 354 6,700 2,548 Climbing Houston Center
Thu 11:41:10 AM 29.5322 -95.2328 200° South 308 354 7,400 3,672 Climbing Houston Center
Thu 11:41:59 AM 29.4653 -95.2664 204° Southwest 299 344 10,800 3,058 Climbing Houston Center
Thu 11:42:54 AM 29.3867 -95.3022 202° Southwest 349 402 12,700 1,816 Climbing Houston Center
Thu 11:43:15 AM 29.3681 -95.3100 200° South 339 390 13,100 2,122 Climbing Houston Center
Thu 11:44:16 AM 29.2758 -95.3531 202° Southwest 356 410 15,600 2,488 Climbing Houston Center
Thu 11:45:18 AM 29.1586 -95.4089 203° Southwest 377 434 18,200 2,226 Climbing Houston Center
Thu 11:46:20 AM 29.0672 -95.4797 214° Southwest 399 459 20,200 2,064 Climbing Houston Center
Thu 11:47:23 AM 28.9767 -95.5508 214° Southwest 396 456 22,500 1,824 Climbing Houston Center
Thu 11:48:25 AM 28.8819 -95.6244 214° Southwest 409 471 24,000 1,548 Climbing Houston Center
Thu 11:49:27 AM 28.7797 -95.6944 211° Southwest 425 489 25,700 1,645 Climbing Houston Center
Thu 11:50:29 AM 28.6744 -95.7606 209° Southwest 431 496 27,400 1,645 Climbing Houston Center
Thu 11:51:31 AM 28.5614 -95.8628 218° Southwest 433 498 29,100 1,500 Climbing Houston Center
Thu 11:52:33 AM 28.4658 -95.9533 220° Southwest 443 510 30,500 1,824 Climbing Houston Center
Thu 11:53:36 AM 28.3600 -96.0378 215° Southwest 438 504 32,900 1,680 Climbing Houston Center
Thu 11:54:38 AM 28.2661 -96.1078 213° Southwest 415 478 34,000 532 Climbing Houston Center
Thu 11:55:40 AM 28.1703 -96.1831 215° Southwest 414 476 34,000  Level Houston Center
Thu 11:56:42 AM 28.0753 -96.2572 215° Southwest 414 476 34,000  Level Houston Center
Thu 11:57:44 AM 27.9800 -96.3286 213° Southwest 412 474 34,000  Level Houston Center
Thu 11:58:46 AM 27.8847 -96.4019 214° Southwest 412 474 34,000  Level Houston Center
Thu 11:59:49 AM 27.7700 -96.4914 215° Southwest 416 479 34,000  Level Houston Center
Thu 12:00:51 PM 27.6728 -96.5658 214° Southwest 419 482 34,000  Level Houston Center
Thu 12:01:53 PM 27.5772 -96.6381 214° Southwest 416 479 34,000  Level Houston Center
Thu 12:02:55 PM 27.4803 -96.7122 214° Southwest 419 482 34,000  Level Houston Center
Thu 12:03:57 PM 27.3828 -96.7864 214° Southwest 421 484 34,000 -823 Level Houston Center
Thu 12:04:59 PM 27.2736 -96.8703 214° Southwest 422 486 32,300 -1,984 Descending Houston Center
Thu 12:06:01 PM 27.1725 -96.9461 214° Southwest 431 496 29,900 -2,274 Descending Houston Center
Thu 12:07:03 PM 27.0758 -97.0192 214° Southwest 425 489 27,600 -2,374 Descending Houston Center
Thu 12:07:32 PM 27.0200 -97.0622 214° Southwest 401 461 26,300 -2,000 Descending Houston Center
Thu 12:08:06 PM 26.9844 -97.0878 213° Southwest 406 467 25,500 -2,091 Descending Houston Center
Thu 12:08:38 PM 26.9192 -97.1397 215° Southwest 388 447 24,000 -2,323 Descending Houston Center
Thu 12:09:08 PM 26.8800 -97.1681 213° Southwest 387 445 23,100 -2,073 Descending Houston Center
Thu 12:09:33 PM 26.8414 -97.1975 214° Southwest 372 428 22,100 -2,710 Descending Houston Center
Thu 12:10:10 PM 26.7950 -97.2297 212° Southwest 367 422 20,300 -3,493 Descending Houston Center
Thu 12:10:40 PM 26.7503 -97.2686 218° Southwest 365 420 18,200 -3,968 Descending Houston Center
Thu 12:11:12 PM 26.7083 -97.3064 219° Southwest 371 427 16,200 -3,836 Descending Houston Center
Thu 12:11:41 PM 26.6697 -97.3383 216° Southwest 373 429 14,300 -3,871 Descending Houston Center
Thu 12:12:14 PM 26.6269 -97.3783 220° Southwest 371 427 12,200 -4,145 Descending Houston Center
Thu 12:12:36 PM 26.5950 -97.4047 216° Southwest 373 429 10,500 -2,129 Descending Houston Center
Thu 12:13:16 PM 26.5450 -97.4539 221° Southwest 352 405 10,000 -900 Descending Houston Center
Thu 12:13:36 PM 26.5244 -97.4731 220° Southwest 307 353 9,600 -1,935 Descending Houston Center
Thu 12:14:18 PM 26.4850 -97.5139 223° Southwest 295 339 8,000 -2,361 Descending Houston Center
Thu 12:14:37 PM 26.4658 -97.5325 221° Southwest 278 320 7,200 -2,226 Descending Houston Center
Thu 12:15:20 PM 26.4289 -97.5850 232° Southwest 285 328 5,700 -1,672 Descending Houston Center
Thu 12:15:38 PM 26.4194 -97.6089 246° West 270 311 5,500 -1,355 Descending Houston Center
Thu 12:16:22 PM 26.4033 -97.6519 247° West 258 297 4,300 -1,770 Descending Houston Center
Thu 12:16:39 PM 26.3850 -97.6600 201° Southwest 225 259 3,700 -667 Descending Houston Center
Thu 12:17:25 PM 26.3503 -97.6581 177° South 178 205 3,600 -1,056 Descending Houston Center
Thu 12:18:27 PM 26.3036 -97.6586 181° South 154 177 1,800 -1,548 Descending Houston Center
Thu 12:19:29 PM 26.2597 -97.6586 180° South 147 169 400 -1,355 Descending Houston Center
Thu 12:22:00 PM 26.2271 -97.6551 214° Southwest  Level Estimated

Login

Don't have an account? Register now (free) for customized features, flight alerts, and more!